Aérodrome :
LOGIN :

S'inscrire | Disclaimer

   EN    FR    IT 

 










Légende :    VFR   VFR Marginal   IFR   IFR Intensif   IFR Très Intensif
Visi : 
Plafond : 
>= 8 km
>= 3000ft
5 à 8 km
1000 à 3000 ft
1500m à 5 km
500 à 1000 ft
800 à 1500m
200 à 500 ft
< 800m
< 200 ft
Symboles :   Orages  Brouillard  Fortes neiges  Fortes précipitations  Vent > 20 kt
SIGMETs :   Divers  Orages  Givrage  Turbulence  Onde Orograph.  Cendres Volcan.







- Altitude de l'aérodrome : 102 ft
- Code IATA : CNG
- Voir les cartes d'approche


LFBG - Cognac

DERNIER METAR :
  • 290330Z AUTO 00000KT CAVOK 20/14 Q1013 TEMPO VRB20G35KT 3000 -TSRA BKN040CB

METARs EXPIRÉS :
  • 290300Z AUTO VRB03KT CAVOK 20/14 Q1013 TEMPO VRB20G35KT 3000 -TSRA BKN040CB
  • 290230Z AUTO 24004KT CAVOK 21/15 Q1013 TEMPO VRB20G35KT 3000 -TSRA BKN040CB
  • 290200Z AUTO 23002KT CAVOK 22/16 Q1013
  • 290130Z AUTO 12003KT 090V210 CAVOK 22/16 Q1013
  • 290100Z AUTO 07005KT CAVOK 22/16 Q1012

TAF TAF LFBG
Valide du 29 à 03h jusqu'au 30 à 03h UTC


290200Z 2903/3003 21010KT CAVOK
TEMPO 2903/2909 30015G25KT -SHRA SCT030CB
PROB30
TEMPO 2903/2909 VRB20G35KT 3000 -TSRA BKN040CB
BECMG 2915/2918 BKN014
Pas de NOTAMs connus pour ce terrain.
1 SIGMET publié pour la FIR Bordeaux (LFBB) :
 
Orages noyés dans la masse
LFBB SIGMET 2 VALID 290300/290500 LFPW
LFBB BORDEAUX FIR/UIR EMBD TS OBS AT 0300Z W OF LINE N4630 W00045 - N4245 W00100 TOP FL390 MOV N 25KT NC=



MET'MAP, la Météo Aéronautique d'un coup d'oeil ! - Copyright ORBIFLY Décembre 2007 - Disclaimer

ORBIFLY MET'MAP TEAM :

Programmation & Développement : Alexandra Zaïnal
Conception & Développement : Baudouin d'Aumeries
Co-Programmation & Développement : Marc-Olivier Méhu
Soutien technique & logistique : Manuel Goepfert

Contact : metmap@orbifly.com




SOURCES & CREDITS :

   NOAA